createdAt,value
2022-12-05T00:01:38.830Z,71.38
2022-12-05T00:04:09.192Z,71.28
2022-12-05T00:06:38.331Z,71.25
2022-12-05T00:09:06.810Z,71.31
2022-12-05T00:11:38.347Z,71.35
2022-12-05T00:14:06.745Z,71.21
2022-12-05T00:16:35.496Z,71.34
2022-12-05T00:19:05.226Z,71.43
2022-12-05T00:21:36.156Z,71.38
2022-12-05T00:24:05.132Z,71.34
2022-12-05T00:26:32.608Z,71.27
2022-12-05T00:29:00.018Z,71.28
2022-12-05T00:31:28.349Z,71.28
2022-12-05T00:33:56.494Z,71.26
2022-12-05T00:36:26.014Z,71.33
2022-12-05T00:38:54.080Z,71.44
2022-12-05T00:41:23.500Z,71.43
2022-12-05T00:43:51.069Z,71.38
2022-12-05T00:46:24.149Z,71.33
2022-12-05T00:48:54.041Z,71.31
2022-12-05T00:51:28.401Z,71.36
2022-12-05T00:53:58.842Z,71.44
2022-12-05T00:56:27.781Z,71.37
2022-12-05T00:58:55.976Z,71.33
2022-12-05T01:01:29.507Z,71.26
2022-12-05T01:03:58.245Z,71.40
2022-12-05T01:06:26.289Z,71.43
2022-12-05T01:08:56.946Z,71.51
2022-12-05T01:11:25.891Z,71.41
2022-12-05T01:13:54.121Z,71.41
2022-12-05T01:16:25.723Z,71.37
2022-12-05T01:18:53.689Z,71.39
2022-12-05T01:21:21.608Z,71.37
2022-12-05T01:23:49.141Z,71.27
2022-12-05T01:26:17.855Z,71.36
2022-12-05T01:28:46.243Z,71.47
2022-12-05T01:31:24.597Z,71.37
2022-12-05T01:33:53.642Z,71.45
2022-12-05T01:36:21.543Z,71.38
2022-12-05T01:38:48.609Z,71.36
2022-12-05T01:41:19.806Z,71.34
2022-12-05T01:44:01.470Z,71.43
2022-12-05T01:46:32.147Z,71.48
2022-12-05T01:49:08.108Z,71.41
2022-12-05T01:51:38.256Z,71.41
2022-12-05T01:54:06.533Z,71.46
2022-12-05T01:56:34.964Z,71.33
2022-12-05T01:59:04.266Z,71.23
2022-12-05T02:01:31.702Z,71.27
2022-12-05T02:03:59.729Z,71.30
2022-12-05T02:06:28.354Z,71.32
2022-12-05T02:08:55.529Z,71.36
2022-12-05T02:11:25.164Z,71.45
2022-12-05T02:14:04.525Z,71.42
2022-12-05T02:16:48.735Z,71.48
2022-12-05T02:19:31.416Z,71.45
2022-12-05T02:22:20.456Z,71.36
2022-12-05T02:24:58.716Z,71.43
2022-12-05T02:27:47.270Z,71.42
2022-12-05T02:30:23.609Z,71.33
2022-12-05T02:33:06.147Z,71.35
2022-12-05T02:36:06.192Z,71.40
2022-12-05T02:38:42.307Z,71.45
2022-12-05T02:41:17.009Z,71.45
2022-12-05T02:43:53.099Z,71.45
2022-12-05T02:46:24.324Z,71.48
2022-12-05T02:48:57.119Z,71.53
2022-12-05T02:51:29.289Z,71.47
2022-12-05T02:54:00.637Z,71.32
2022-12-05T02:56:29.887Z,71.29
2022-12-05T02:58:56.889Z,71.43
2022-12-05T03:01:27.682Z,71.39
2022-12-05T03:03:56.146Z,71.41
2022-12-05T03:06:31.468Z,71.31
2022-12-05T03:09:04.719Z,71.42
2022-12-05T03:11:38.727Z,71.29
2022-12-05T03:14:10.918Z,71.31
2022-12-05T03:16:47.925Z,71.29
2022-12-05T03:19:24.906Z,71.45
2022-12-05T03:22:10.154Z,71.47
2022-12-05T03:24:40.713Z,71.51
2022-12-05T03:27:20.842Z,71.53
2022-12-05T03:30:02.272Z,71.49
2022-12-05T03:32:54.974Z,71.37
2022-12-05T03:35:35.617Z,71.40
2022-12-05T03:38:11.780Z,71.42
2022-12-05T03:40:47.454Z,71.33
2022-12-05T03:43:51.450Z,71.35
2022-12-05T03:46:24.597Z,71.50
2022-12-05T03:49:17.304Z,71.41
2022-12-05T03:51:53.523Z,71.59
2022-12-05T03:54:26.439Z,71.55
2022-12-05T03:57:01.468Z,71.40
2022-12-05T03:59:38.862Z,71.32
2022-12-05T04:02:13.897Z,71.36
2022-12-05T04:04:51.722Z,71.41
2022-12-05T04:07:20.665Z,71.45
2022-12-05T04:09:54.996Z,71.44
2022-12-05T04:12:31.357Z,71.54
2022-12-05T04:15:02.186Z,71.39
2022-12-05T04:17:53.596Z,71.53
2022-12-05T04:20:58.032Z,71.59
2022-12-05T04:23:26.205Z,71.59
2022-12-05T04:26:11.558Z,71.45
2022-12-05T04:28:48.462Z,71.48
2022-12-05T04:31:29.763Z,71.42
2022-12-05T04:34:10.309Z,71.41
2022-12-05T04:36:58.206Z,71.41
2022-12-05T04:39:35.178Z,71.51
2022-12-05T04:42:07.728Z,71.57
2022-12-05T04:44:40.408Z,71.44
2022-12-05T04:47:09.915Z,71.47
2022-12-05T04:49:38.372Z,71.61
2022-12-05T04:52:10.770Z,71.53
2022-12-05T04:55:01.476Z,71.41
2022-12-05T04:57:33.794Z,71.42
2022-12-05T05:00:01.016Z,71.27
2022-12-05T05:02:34.578Z,71.41
2022-12-05T05:05:10.928Z,71.45
2022-12-05T05:07:49.227Z,71.57
2022-12-05T05:10:22.419Z,71.54
2022-12-05T05:12:49.492Z,71.47
2022-12-05T05:15:16.566Z,71.54
2022-12-05T05:17:43.590Z,71.43
2022-12-05T05:20:27.280Z,71.52
2022-12-05T05:22:56.296Z,71.41
2022-12-05T05:25:24.342Z,71.43
2022-12-05T05:27:53.439Z,71.58
2022-12-05T05:30:22.024Z,71.57
2022-12-05T05:32:49.507Z,71.52
2022-12-05T05:35:17.232Z,71.61
2022-12-05T05:37:44.626Z,71.59
2022-12-05T05:40:13.493Z,71.60
2022-12-05T05:42:45.917Z,71.46
2022-12-05T05:45:15.094Z,71.50
2022-12-05T05:47:42.497Z,71.45
2022-12-05T05:50:10.703Z,71.49
2022-12-05T05:52:38.614Z,71.57
2022-12-05T05:55:07.186Z,71.54
2022-12-05T05:57:34.325Z,71.57
2022-12-05T06:00:01.730Z,71.48
2022-12-05T06:02:33.668Z,71.45
2022-12-05T06:05:01.535Z,71.49
2022-12-05T06:07:29.374Z,71.51
2022-12-05T06:09:57.179Z,71.40
2022-12-05T06:12:24.681Z,71.40
2022-12-05T06:14:52.725Z,71.49
2022-12-05T06:17:19.824Z,71.57
2022-12-05T06:19:46.923Z,71.42
2022-12-05T06:22:13.947Z,71.48
2022-12-05T06:24:40.996Z,71.47
2022-12-05T06:27:08.056Z,71.38
2022-12-05T06:29:35.847Z,71.34
2022-12-05T06:32:03.345Z,71.37
2022-12-05T06:34:32.644Z,71.46
2022-12-05T06:37:00.205Z,71.43
2022-12-05T06:39:27.557Z,71.57
2022-12-05T06:41:54.582Z,71.56
2022-12-05T06:44:22.140Z,71.50
2022-12-05T06:46:49.341Z,71.54
2022-12-05T06:49:16.401Z,71.47
2022-12-05T06:51:43.441Z,71.50
2022-12-05T06:54:12.996Z,71.55
2022-12-05T06:56:40.071Z,71.63
2022-12-05T06:59:07.168Z,71.64
2022-12-05T07:01:44.108Z,71.73
2022-12-05T07:04:20.339Z,71.68
2022-12-05T07:06:51.433Z,71.67
2022-12-05T07:09:43.899Z,71.70
2022-12-05T07:12:12.159Z,71.58
2022-12-05T07:14:47.655Z,71.56
2022-12-05T07:17:15.795Z,71.49
2022-12-05T07:19:42.822Z,71.53
2022-12-05T07:22:15.430Z,71.54
2022-12-05T07:24:44.289Z,71.55
2022-12-05T07:27:11.821Z,71.58
2022-12-05T07:29:38.895Z,71.65
2022-12-05T07:32:06.581Z,71.63
2022-12-05T07:34:33.709Z,71.49
2022-12-05T07:37:01.064Z,71.51
2022-12-05T07:39:28.234Z,71.53
2022-12-05T07:41:55.262Z,71.60
2022-12-05T07:44:22.335Z,71.56
2022-12-05T07:46:49.334Z,71.45
2022-12-05T07:49:16.433Z,71.64
2022-12-05T07:51:43.994Z,71.55
2022-12-05T07:54:11.022Z,71.69
2022-12-05T07:56:40.038Z,71.68
2022-12-05T07:59:10.282Z,71.69
2022-12-05T08:01:37.299Z,71.66
2022-12-05T08:04:04.559Z,71.47
2022-12-05T08:06:33.906Z,71.53
2022-12-05T08:09:00.984Z,71.51
2022-12-05T08:11:36.100Z,71.47
2022-12-05T08:14:05.014Z,71.51
2022-12-05T08:16:32.722Z,71.48
2022-12-05T08:19:03.488Z,71.49
2022-12-05T08:21:31.154Z,71.58
2022-12-05T08:23:58.893Z,71.58
2022-12-05T08:26:28.779Z,71.56
2022-12-05T08:29:01.768Z,71.58
2022-12-05T08:31:34.420Z,71.57
2022-12-05T08:34:01.602Z,71.38
2022-12-05T08:36:30.440Z,71.38
2022-12-05T08:38:59.766Z,71.47
2022-12-05T08:41:30.079Z,71.61
2022-12-05T08:43:59.701Z,71.60
2022-12-05T08:46:26.914Z,71.60
2022-12-05T08:48:54.665Z,71.56
2022-12-05T08:51:21.816Z,71.53
2022-12-05T08:53:49.068Z,71.46
2022-12-05T08:56:16.325Z,71.45
2022-12-05T08:58:43.374Z,71.42
2022-12-05T09:01:16.276Z,71.38
2022-12-05T09:03:48.100Z,71.55
2022-12-05T09:06:21.412Z,71.45
2022-12-05T09:08:49.660Z,71.65
2022-12-05T09:11:19.560Z,71.59
2022-12-05T09:13:47.931Z,71.48
2022-12-05T09:16:21.107Z,71.48
2022-12-05T09:18:49.604Z,71.44
2022-12-05T09:21:19.237Z,71.47
2022-12-05T09:23:46.285Z,71.51
2022-12-05T09:26:16.586Z,71.51
2022-12-05T09:28:44.427Z,71.53
2022-12-05T09:31:14.333Z,71.56
2022-12-05T09:33:41.824Z,71.67
2022-12-05T09:36:12.893Z,71.67
2022-12-05T09:38:40.695Z,71.62
2022-12-05T09:41:58.142Z,71.52
2022-12-05T09:44:39.805Z,71.54
2022-12-05T09:47:49.122Z,71.61
2022-12-05T09:50:21.262Z,71.63
2022-12-05T09:53:20.772Z,71.58
2022-12-05T09:56:02.190Z,71.55
2022-12-05T09:58:51.807Z,71.55
2022-12-05T10:01:28.052Z,71.57
2022-12-05T10:04:33.727Z,71.61
2022-12-05T10:07:28.761Z,71.57
2022-12-05T10:10:20.217Z,71.48
2022-12-05T10:13:06.271Z,71.55
2022-12-05T10:15:57.158Z,71.55
2022-12-05T10:18:45.631Z,71.60
2022-12-05T10:21:21.086Z,71.50
2022-12-05T10:23:57.933Z,71.57
2022-12-05T10:26:32.832Z,71.55
2022-12-05T10:29:29.809Z,71.62
2022-12-05T10:32:06.892Z,71.59
2022-12-05T10:34:39.597Z,71.61
2022-12-05T10:37:24.284Z,71.55
2022-12-05T10:39:52.460Z,71.51
2022-12-05T10:42:31.772Z,71.51
2022-12-05T10:45:03.863Z,71.42
2022-12-05T10:47:32.319Z,71.53
2022-12-05T10:50:04.562Z,71.49
2022-12-05T10:52:32.432Z,71.61
2022-12-05T10:55:04.141Z,71.52
2022-12-05T10:57:31.684Z,71.61
2022-12-05T11:00:09.240Z,71.46
2022-12-05T11:02:38.263Z,71.47
2022-12-05T11:05:05.810Z,71.52
2022-12-05T11:07:38.022Z,71.57
2022-12-05T11:10:26.341Z,71.54
2022-12-05T11:12:56.840Z,71.43
2022-12-05T11:15:28.140Z,71.46
2022-12-05T11:17:58.976Z,71.53
2022-12-05T11:20:25.947Z,71.59
2022-12-05T11:22:56.379Z,71.54
2022-12-05T11:25:33.921Z,71.61
2022-12-05T11:28:21.088Z,71.57
2022-12-05T11:31:20.186Z,71.47
2022-12-05T11:34:16.192Z,71.49
2022-12-05T11:36:54.604Z,71.58
2022-12-05T11:39:21.784Z,71.56
2022-12-05T11:41:59.606Z,71.59
2022-12-05T11:44:51.130Z,71.52
2022-12-05T11:47:18.120Z,71.52
2022-12-05T11:50:02.019Z,71.45
2022-12-05T11:52:40.711Z,71.55
2022-12-05T11:55:30.266Z,71.52
2022-12-05T11:57:57.288Z,71.46
2022-12-05T12:00:55.414Z,71.54
2022-12-05T12:03:50.167Z,71.45
2022-12-05T12:06:17.280Z,71.48
2022-12-05T12:08:57.011Z,71.45
2022-12-05T12:11:46.251Z,71.63
2022-12-05T12:14:35.547Z,71.57
2022-12-05T12:17:21.462Z,71.48
2022-12-05T12:20:30.509Z,71.58
2022-12-05T12:23:26.728Z,71.59
2022-12-05T12:26:06.501Z,71.62
2022-12-05T12:28:46.540Z,71.48
2022-12-05T12:31:41.988Z,71.44
2022-12-05T12:34:38.046Z,71.54
2022-12-05T12:37:20.916Z,71.59
2022-12-05T12:40:13.748Z,71.53
2022-12-05T12:43:30.855Z,71.62
2022-12-05T12:46:38.693Z,71.59
2022-12-05T12:49:28.678Z,71.65
2022-12-05T12:52:11.013Z,71.66
2022-12-05T12:55:05.011Z,71.61
2022-12-05T12:57:39.693Z,71.68
2022-12-05T13:00:15.780Z,71.52
2022-12-05T13:03:06.453Z,71.49
2022-12-05T13:05:39.288Z,71.56
2022-12-05T13:08:29.249Z,71.52
2022-12-05T13:10:59.701Z,71.52
2022-12-05T13:13:34.070Z,71.71
2022-12-05T13:16:04.125Z,71.62
2022-12-05T13:18:31.169Z,71.63
2022-12-05T13:21:01.132Z,71.69
2022-12-05T13:23:31.095Z,71.58
2022-12-05T13:26:01.196Z,71.60
2022-12-05T13:28:42.089Z,71.57
2022-12-05T13:31:11.082Z,71.57
2022-12-05T13:33:46.992Z,71.53
2022-12-05T13:36:37.971Z,71.56
2022-12-05T13:39:34.591Z,71.52
2022-12-05T13:42:17.330Z,71.62
2022-12-05T13:44:44.343Z,71.56
2022-12-05T13:47:23.713Z,71.67
2022-12-05T13:50:01.677Z,71.69
2022-12-05T13:52:39.366Z,71.75
2022-12-05T13:55:39.291Z,71.71
2022-12-05T13:58:26.557Z,71.68
2022-12-05T14:01:31.027Z,71.62
2022-12-05T14:04:02.972Z,71.56
2022-12-05T14:06:38.244Z,71.59
2022-12-05T14:09:17.811Z,71.49
2022-12-05T14:12:13.071Z,71.54
2022-12-05T14:14:58.354Z,71.61
2022-12-05T14:17:29.585Z,71.58
2022-12-05T14:20:16.781Z,71.59
2022-12-05T14:22:54.504Z,71.61
2022-12-05T14:25:29.158Z,71.67
2022-12-05T14:28:27.156Z,71.62
2022-12-05T14:31:19.336Z,71.58
2022-12-05T14:33:46.596Z,71.61
2022-12-05T14:36:17.150Z,71.43
2022-12-05T14:38:44.635Z,71.43
2022-12-05T14:41:16.009Z,71.55
2022-12-05T14:43:43.952Z,71.49
2022-12-05T14:46:25.062Z,71.61
2022-12-05T14:48:52.334Z,71.55
2022-12-05T14:51:31.368Z,71.60
2022-12-05T14:54:06.425Z,71.60
2022-12-05T14:56:41.741Z,71.57
2022-12-05T14:59:25.225Z,71.58
2022-12-05T15:01:59.284Z,71.59
2022-12-05T15:04:29.583Z,71.70
2022-12-05T15:07:03.059Z,71.63
2022-12-05T15:10:01.003Z,71.73
2022-12-05T15:12:48.278Z,71.80
2022-12-05T15:15:42.710Z,71.78
2022-12-05T15:18:34.887Z,71.81
2022-12-05T15:21:09.381Z,71.74
2022-12-05T15:23:42.066Z,71.79
2022-12-05T15:26:47.325Z,71.80
2022-12-05T15:29:27.086Z,71.59
2022-12-05T15:31:55.455Z,71.54
2022-12-05T15:34:57.947Z,71.58
2022-12-05T15:37:28.445Z,71.71
2022-12-05T15:39:59.793Z,71.67
2022-12-05T15:42:30.449Z,71.75
2022-12-05T15:45:16.004Z,71.54
2022-12-05T15:47:46.972Z,71.77
2022-12-05T15:50:16.655Z,71.74
2022-12-05T15:52:58.267Z,71.77
2022-12-05T15:55:29.746Z,71.56
2022-12-05T15:58:13.095Z,71.66
2022-12-05T16:00:45.919Z,71.67
2022-12-05T16:03:18.845Z,71.70
2022-12-05T16:05:55.445Z,71.78
2022-12-05T16:08:24.632Z,71.74
2022-12-05T16:10:52.123Z,71.83
2022-12-05T16:13:24.010Z,71.78
2022-12-05T16:15:54.247Z,71.80
2022-12-05T16:18:30.752Z,71.76
2022-12-05T16:20:58.291Z,71.69
2022-12-05T16:23:32.453Z,71.71
2022-12-05T16:26:20.732Z,71.72
2022-12-05T16:28:58.856Z,71.68
2022-12-05T16:31:26.164Z,71.68
2022-12-05T16:34:02.143Z,71.72
2022-12-05T16:36:29.269Z,71.81
2022-12-05T16:39:07.144Z,71.83
2022-12-05T16:41:36.399Z,71.82
2022-12-05T16:44:09.450Z,71.74
2022-12-05T16:46:44.285Z,71.83
2022-12-05T16:49:20.275Z,71.82
2022-12-05T16:51:58.712Z,71.73
2022-12-05T16:54:25.838Z,71.70
2022-12-05T16:56:52.989Z,71.70
2022-12-05T16:59:34.757Z,71.70
2022-12-05T17:02:05.528Z,71.70
2022-12-05T17:04:32.707Z,71.75
2022-12-05T17:06:59.766Z,71.68
2022-12-05T17:09:26.866Z,71.74
2022-12-05T17:12:01.954Z,71.75
2022-12-05T17:14:29.103Z,71.81
2022-12-05T17:16:56.203Z,71.78
2022-12-05T17:19:23.352Z,71.74
2022-12-05T17:21:50.529Z,71.76
2022-12-05T17:24:19.115Z,71.78
2022-12-05T17:26:47.569Z,71.65
2022-12-05T17:29:14.625Z,71.74
2022-12-05T17:31:41.851Z,71.76
2022-12-05T17:34:18.386Z,71.83
2022-12-05T17:36:45.723Z,71.78
2022-12-05T17:39:13.388Z,71.84
2022-12-05T17:41:40.485Z,71.82
2022-12-05T17:44:07.946Z,71.75
2022-12-05T17:46:35.250Z,71.69
2022-12-05T17:49:02.376Z,71.66
2022-12-05T17:51:30.610Z,71.83
2022-12-05T17:53:57.618Z,71.84
2022-12-05T17:56:24.845Z,71.78
2022-12-05T17:58:51.914Z,71.76
2022-12-05T18:01:20.816Z,71.67
2022-12-05T18:03:48.550Z,71.82
2022-12-05T18:06:16.678Z,71.83
2022-12-05T18:08:45.420Z,71.84
2022-12-05T18:11:14.130Z,71.90
2022-12-05T18:13:41.249Z,71.97
2022-12-05T18:16:08.398Z,71.93
2022-12-05T18:18:35.575Z,71.85
2022-12-05T18:21:10.585Z,71.76
2022-12-05T18:23:39.323Z,71.76
2022-12-05T18:26:08.039Z,71.84
2022-12-05T18:28:39.916Z,71.75
2022-12-05T18:31:15.705Z,71.80
2022-12-05T18:33:44.851Z,71.77
2022-12-05T18:36:15.896Z,71.91
2022-12-05T18:38:49.017Z,71.94
2022-12-05T18:41:16.026Z,71.89
2022-12-05T18:43:43.587Z,71.81
2022-12-05T18:46:10.686Z,71.96
2022-12-05T18:48:41.585Z,71.97
2022-12-05T18:51:16.890Z,71.81
2022-12-05T18:53:52.379Z,71.76
2022-12-05T18:56:24.719Z,71.88
2022-12-05T18:58:55.935Z,71.89
2022-12-05T19:01:23.807Z,71.84
2022-12-05T19:03:51.155Z,71.86
2022-12-05T19:06:21.301Z,71.82
2022-12-05T19:08:48.577Z,71.80
2022-12-05T19:11:17.759Z,71.95
2022-12-05T19:13:45.081Z,72.03
2022-12-05T19:16:19.584Z,71.88
2022-12-05T19:18:47.377Z,71.88
2022-12-05T19:21:14.520Z,71.84
2022-12-05T19:23:41.545Z,71.92
2022-12-05T19:26:09.756Z,71.98
2022-12-05T19:28:38.146Z,71.89
2022-12-05T19:31:10.885Z,71.92
2022-12-05T19:33:41.047Z,71.95
2022-12-05T19:36:11.736Z,71.99
2022-12-05T19:38:41.396Z,72.07
2022-12-05T19:41:10.875Z,72.01
2022-12-05T19:43:39.174Z,71.90
2022-12-05T19:46:08.550Z,72.00
2022-12-05T19:48:36.040Z,71.99
2022-12-05T19:51:04.235Z,72.05
2022-12-05T19:53:34.716Z,71.92
2022-12-05T19:56:13.540Z,71.96
2022-12-05T19:58:41.204Z,72.08
2022-12-05T20:01:36.456Z,72.04
2022-12-05T20:04:09.604Z,71.98
2022-12-05T20:06:51.477Z,71.98
2022-12-05T20:09:20.747Z,72.00
2022-12-05T20:11:55.165Z,71.93
2022-12-05T20:14:24.908Z,72.01
2022-12-05T20:16:52.817Z,71.96
2022-12-05T20:19:20.001Z,71.95
2022-12-05T20:21:47.079Z,71.92
2022-12-05T20:24:14.174Z,72.00
2022-12-05T20:26:43.345Z,72.10
2022-12-05T20:29:10.961Z,72.07
2022-12-05T20:31:40.695Z,71.99
2022-12-05T20:34:11.738Z,72.07
2022-12-05T20:36:38.829Z,72.16
2022-12-05T20:39:17.634Z,72.02
2022-12-05T20:41:45.108Z,71.85
2022-12-05T20:44:15.015Z,71.96
2022-12-05T20:46:42.122Z,71.94
2022-12-05T20:49:09.845Z,71.89
2022-12-05T20:51:41.681Z,72.09
2022-12-05T20:54:09.115Z,72.12
2022-12-05T20:56:36.136Z,72.16
2022-12-05T20:59:05.619Z,72.18
2022-12-05T21:01:35.971Z,72.14
2022-12-05T21:04:05.833Z,72.32
2022-12-05T21:06:38.522Z,72.28
2022-12-05T21:09:15.503Z,72.24
2022-12-05T21:11:43.128Z,72.03
2022-12-05T21:14:11.021Z,71.98
2022-12-05T21:16:38.192Z,71.98
2022-12-05T21:19:05.374Z,72.05
2022-12-05T21:21:34.263Z,72.05
2022-12-05T21:24:03.490Z,72.17
2022-12-05T21:26:33.584Z,72.14
2022-12-05T21:29:02.791Z,72.21
2022-12-05T21:31:32.968Z,72.23
2022-12-05T21:34:04.355Z,72.16
2022-12-05T21:36:33.605Z,72.22
2022-12-05T21:39:00.810Z,72.11
2022-12-05T21:41:27.984Z,72.08
2022-12-05T21:43:55.982Z,72.10
2022-12-05T21:46:24.882Z,72.15
2022-12-05T21:48:51.994Z,72.16
2022-12-05T21:51:19.271Z,72.09
2022-12-05T21:53:46.372Z,72.25
2022-12-05T21:56:15.935Z,72.38
2022-12-05T21:58:44.628Z,72.32
2022-12-05T22:01:17.498Z,72.28
2022-12-05T22:03:45.320Z,72.35
2022-12-05T22:06:14.679Z,72.31
2022-12-05T22:08:42.766Z,72.24
2022-12-05T22:11:15.450Z,72.40
2022-12-05T22:13:44.339Z,72.24
2022-12-05T22:16:12.682Z,72.14
2022-12-05T22:18:40.372Z,72.14
2022-12-05T22:21:11.576Z,72.28
2022-12-05T22:23:38.941Z,72.25
2022-12-05T22:26:15.321Z,72.26
2022-12-05T22:28:42.327Z,72.32
2022-12-05T22:31:12.235Z,72.33
2022-12-05T22:33:39.965Z,72.31
2022-12-05T22:36:09.862Z,72.22
2022-12-05T22:38:42.333Z,72.28
2022-12-05T22:41:14.483Z,72.19
2022-12-05T22:43:43.322Z,72.22
2022-12-05T22:46:14.893Z,72.14
2022-12-05T22:48:42.230Z,72.24
2022-12-05T22:51:09.746Z,72.28
2022-12-05T22:53:37.325Z,72.34
2022-12-05T22:56:09.623Z,72.33
2022-12-05T22:58:37.105Z,72.40
2022-12-05T23:01:11.756Z,72.37
2022-12-05T23:03:39.468Z,72.26
2022-12-05T23:06:11.511Z,72.20
2022-12-05T23:08:41.108Z,72.15
2022-12-05T23:11:09.422Z,72.13
2022-12-05T23:13:37.774Z,72.20
2022-12-05T23:16:10.690Z,72.21
2022-12-05T23:18:47.938Z,72.23
2022-12-05T23:21:23.111Z,72.28
2022-12-05T23:23:53.347Z,72.42
2022-12-05T23:26:23.566Z,72.29
2022-12-05T23:28:51.481Z,72.27
2022-12-05T23:31:18.975Z,72.24
2022-12-05T23:33:49.574Z,72.37
2022-12-05T23:36:19.311Z,72.36
2022-12-05T23:38:46.499Z,72.21
2022-12-05T23:41:19.775Z,72.25
2022-12-05T23:43:48.306Z,72.24
2022-12-05T23:46:17.151Z,72.43
2022-12-05T23:48:44.758Z,72.28
2022-12-05T23:51:15.188Z,72.30
2022-12-05T23:53:44.434Z,72.35
2022-12-05T23:56:15.348Z,72.44
2022-12-05T23:58:43.009Z,72.37
